Time;durP1;ratioP1;P1;durP2;ratioP2;P2;SDS_P1;SDS_P2;PMS_P1;PMS_P2;Temp;Humidity;BMP_temperature;BMP_pressure;BME280_temperature;BME280_humidity;BME280_pressure;Samples;Min_cycle;Max_cycle;Signal;HPM_P1;HPM_P2
2023/06/28 00:00:55;;;;;;;4.57;1.63;;;;;;;14.63;78.61;100984.63;4982320;28;20228;-70
2023/06/28 00:03:23;;;;;;;3.70;1.60;;;;;;;14.62;78.89;100988.28;4978809;28;20212;-70
2023/06/28 00:05:49;;;;;;;2.97;1.60;;;;;;;14.59;79.17;100981.31;4978713;28;20212;-70
2023/06/28 00:08:16;;;;;;;3.47;1.77;;;;;;;14.58;79.03;100988.50;4976384;28;20200;-70
2023/06/28 00:10:42;;;;;;;3.87;1.40;;;;;;;14.56;79.20;100984.22;4978382;28;20231;-70
2023/06/28 00:13:09;;;;;;;6.77;1.70;;;;;;;14.55;79.33;100991.41;4983470;28;20207;-69
2023/06/28 00:15:35;;;;;;;5.37;1.90;;;;;;;14.53;79.46;100993.34;4982807;28;20677;-70
2023/06/28 00:18:03;;;;;;;4.57;1.50;;;;;;;14.53;79.85;100997.84;4981760;28;20740;-70
2023/06/28 00:20:31;;;;;;;3.60;1.37;;;;;;;14.51;80.15;101005.16;4982439;28;20255;-69
2023/06/28 00:22:57;;;;;;;3.80;1.33;;;;;;;14.48;80.20;101003.56;4984800;28;20210;-69
2023/06/28 00:25:23;;;;;;;3.67;1.57;;;;;;;14.46;80.33;101010.88;4984729;28;20211;-70
2023/06/28 00:27:50;;;;;;;4.07;1.77;;;;;;;14.44;80.17;101012.78;4980487;28;20199;-69
2023/06/28 00:30:17;;;;;;;4.13;1.60;;;;;;;14.43;80.51;101015.59;4980545;28;20243;-70
2023/06/28 00:32:44;;;;;;;7.33;1.77;;;;;;;14.40;80.69;101015.78;4976677;28;20208;-70
2023/06/28 00:35:10;;;;;;;4.80;1.50;;;;;;;14.39;80.78;101016.75;4989465;28;20203;-69
2023/06/28 00:37:38;;;;;;;5.43;2.10;;;;;;;14.37;81.20;101021.34;4984456;28;20209;-70
2023/06/28 00:40:06;;;;;;;4.83;1.53;;;;;;;14.35;81.88;101017.94;4983331;28;20226;-70
2023/06/28 00:42:33;;;;;;;6.27;1.60;;;;;;;14.34;81.45;101014.38;4981302;28;20203;-69
2023/06/28 00:44:59;;;;;;;4.53;1.80;;;;;;;14.34;81.89;101018.88;4980717;28;20212;-70
2023/06/28 00:47:27;;;;;;;5.40;1.77;;;;;;;14.34;81.93;101022.44;4984418;28;20227;-70
2023/06/28 00:49:55;;;;;;;4.77;2.00;;;;;;;14.32;82.34;101018.19;4990091;28;20489;-70
2023/06/28 00:52:22;;;;;;;4.00;1.60;;;;;;;14.31;82.37;101016.47;4983952;28;20207;-70
2023/06/28 00:54:50;;;;;;;2.87;1.33;;;;;;;14.27;82.86;101018.50;4985001;28;20235;-70
2023/06/28 00:57:17;;;;;;;4.70;2.50;;;;;;;14.25;82.78;101023.97;4984486;28;20207;-70
2023/06/28 00:59:44;;;;;;;8.70;1.87;;;;;;;14.24;83.10;101016.03;4984294;28;20235;-70
2023/06/28 01:02:11;;;;;;;5.90;2.00;;;;;;;14.22;83.46;101020.66;4985492;28;20589;-70
2023/06/28 01:04:40;;;;;;;4.33;1.60;;;;;;;14.19;83.43;101029.75;4981190;28;20212;-70
2023/06/28 01:07:08;;;;;;;6.60;1.77;;;;;;;14.18;83.76;101024.50;4983739;28;20703;-70
2023/06/28 01:09:35;;;;;;;5.03;1.70;;;;;;;14.17;84.21;101022.78;4987527;28;20242;-69
2023/06/28 01:12:03;;;;;;;4.00;1.70;;;;;;;14.17;84.02;101014.75;4986425;28;20208;-70
2023/06/28 01:14:30;;;;;;;4.63;1.80;;;;;;;14.16;84.51;101019.25;4982005;28;20204;-70
2023/06/28 01:16:56;;;;;;;5.80;1.93;;;;;;;14.15;84.39;101014.88;4983781;28;20266;-69
2023/06/28 01:19:25;;;;;;;3.73;1.77;;;;;;;14.15;85.08;101022.91;4981744;28;20227;-70
2023/06/28 01:21:53;;;;;;;3.83;1.70;;;;;;;14.14;84.60;101018.53;4983082;28;20303;-70
2023/06/28 01:24:21;;;;;;;4.73;1.70;;;;;;;14.12;85.07;101019.63;4974697;28;20216;-68
2023/06/28 01:26:52;;;;;;;6.27;2.07;;;;;;;14.11;84.75;101009.88;4979691;28;20203;-69
2023/06/28 01:29:21;;;;;;;5.57;2.17;;;;;;;14.09;85.37;101012.66;4979130;28;20228;-69
2023/06/28 01:31:50;;;;;;;3.80;2.00;;;;;;;14.08;85.55;101015.44;4976103;28;20212;-69
2023/06/28 01:34:16;;;;;;;4.10;2.20;;;;;;;14.05;85.38;101016.50;4985283;28;20215;-69
2023/06/28 01:36:43;;;;;;;4.57;1.90;;;;;;;14.05;85.81;101015.66;4984840;28;20200;-70
2023/06/28 01:39:11;;;;;;;4.13;1.87;;;;;;;14.01;86.29;101020.38;4982352;28;20610;-70
2023/06/28 01:41:40;;;;;;;6.50;1.87;;;;;;;14.01;86.30;101014.16;4979945;28;20216;-70
2023/06/28 01:44:06;;;;;;;8.17;2.37;;;;;;;13.99;86.39;101018.75;4979334;28;20218;-69
2023/06/28 01:46:33;;;;;;;2.70;1.60;;;;;;;13.97;86.63;101018.91;4972837;28;20696;-70
2023/06/28 01:49:00;;;;;;;6.23;2.00;;;;;;;13.97;86.78;101028.75;4985426;28;20231;-70
2023/06/28 01:51:27;;;;;;;4.37;1.80;;;;;;;13.95;87.05;101031.53;4979421;28;20234;-68
2023/06/28 01:53:53;;;;;;;5.80;2.30;;;;;;;13.94;87.40;101028.97;4981834;28;20211;-69
2023/06/28 01:56:19;;;;;;;6.77;2.07;;;;;;;13.92;87.10;101034.44;4980851;28;20219;-68
2023/06/28 01:58:47;;;;;;;3.23;1.60;;;;;;;13.90;87.24;101031.88;4976541;28;20757;-70
2023/06/28 02:01:14;;;;;;;5.03;1.80;;;;;;;13.87;87.23;101025.88;4981766;28;20215;-69
2023/06/28 02:03:40;;;;;;;5.10;1.70;;;;;;;13.87;87.40;101034.75;4980804;28;20204;-69
2023/06/28 02:06:08;;;;;;;5.87;2.23;;;;;;;13.84;87.90;101024.25;4980581;28;20216;-70
2023/06/28 02:08:34;;;;;;;6.20;2.00;;;;;;;13.84;88.25;101026.94;4981710;28;20669;-70
2023/06/28 02:11:01;;;;;;;4.13;2.07;;;;;;;13.81;88.81;101027.16;4987820;28;20743;-70
2023/06/28 02:13:27;;;;;;;6.87;2.17;;;;;;;13.81;89.20;101029.81;4980516;28;20215;-69
2023/06/28 02:15:56;;;;;;;4.23;2.00;;;;;;;13.79;89.09;101023.72;4979647;28;20574;-70
2023/06/28 02:18:24;;;;;;;6.67;2.37;;;;;;;13.80;89.38;101024.56;4982218;28;20321;-69
2023/06/28 02:20:51;;;;;;;3.93;2.20;;;;;;;13.79;89.83;101031.75;4980757;28;20228;-70
2023/06/28 02:23:18;;;;;;;5.00;1.90;;;;;;;13.79;89.56;101029.06;4982125;28;20203;-71
2023/06/28 02:25:44;;;;;;;6.70;1.97;;;;;;;13.76;89.50;101023.97;4977100;28;20246;-68
2023/06/28 02:28:11;;;;;;;4.33;2.17;;;;;;;13.76;90.28;101026.63;4978985;28;20219;-70
2023/06/28 02:30:37;;;;;;;4.50;2.50;;;;;;;13.76;90.25;101026.63;4975629;28;20729;-69
2023/06/28 02:33:06;;;;;;;12.83;2.87;;;;;;;13.75;90.18;101027.59;4977730;28;20637;-70
2023/06/28 02:35:32;;;;;;;6.37;2.30;;;;;;;13.73;90.44;101028.66;4977144;28;20278;-69
2023/06/28 02:37:58;;;;;;;3.73;2.23;;;;;;;13.70;90.53;101019.03;4982443;28;20600;-69
2023/06/28 02:40:25;;;;;;;5.20;2.27;;;;;;;13.70;90.73;101024.38;4984214;28;20231;-69
2023/06/28 02:42:51;;;;;;;5.50;2.27;;;;;;;13.68;90.65;101025.44;4979351;28;20232;-70
2023/06/28 02:45:18;;;;;;;4.43;2.23;;;;;;;13.67;90.96;101021.91;4982646;28;20235;-70
2023/06/28 02:47:44;;;;;;;6.37;2.37;;;;;;;13.65;90.71;101018.50;4975280;28;20203;-70
2023/06/28 02:50:12;;;;;;;4.90;1.93;;;;;;;13.64;90.99;101022.13;4978775;28;20228;-70
2023/06/28 02:52:39;;;;;;;4.73;2.60;;;;;;;13.63;91.27;101025.75;4980017;28;20212;-70
2023/06/28 02:55:07;;;;;;;5.67;2.20;;;;;;;13.63;91.48;101027.59;4987115;28;20208;-70
2023/06/28 02:57:34;;;;;;;5.13;2.33;;;;;;;13.62;91.30;101028.53;4979593;28;20295;-70
2023/06/28 03:00:00;;;;;;;5.23;2.23;;;;;;;13.61;91.56;101027.72;4977548;28;20242;-69
2023/06/28 03:02:26;;;;;;;6.93;2.00;;;;;;;13.60;91.85;101030.50;4982894;28;20212;-69
2023/06/28 03:04:53;;;;;;;5.20;2.27;;;;;;;13.57;91.60;101028.88;4985915;28;20212;-69
2023/06/28 03:07:21;;;;;;;4.03;2.00;;;;;;;13.57;91.68;101033.38;4981559;28;20207;-70
2023/06/28 03:09:47;;;;;;;5.87;2.90;;;;;;;13.56;91.66;101029.84;4976788;28;20235;-69
2023/06/28 03:12:14;;;;;;;5.07;2.33;;;;;;;13.54;91.77;101032.63;4985503;28;20220;-69
2023/06/28 03:14:40;;;;;;;4.70;2.07;;;;;;;13.54;91.77;101037.13;4973116;28;20208;-69
2023/06/28 03:17:07;;;;;;;4.70;2.07;;;;;;;13.52;91.66;101033.69;4980616;28;20677;-69
2023/06/28 03:19:34;;;;;;;7.43;2.37;;;;;;;13.50;91.82;101040.97;4984549;28;20709;-70
2023/06/28 03:22:01;;;;;;;8.87;2.50;;;;;;;13.50;91.59;101035.63;4976746;28;20212;-70
2023/06/28 03:24:28;;;;;;;5.20;2.30;;;;;;;13.49;91.77;101039.25;4977370;28;20216;-70
2023/06/28 03:26:56;;;;;;;4.27;2.30;;;;;;;13.48;92.02;101040.22;4976447;28;20444;-70
2023/06/28 03:29:22;;;;;;;6.60;2.20;;;;;;;13.47;91.70;101035.81;4978347;28;20236;-68
2023/06/28 03:31:49;;;;;;;7.23;2.20;;;;;;;13.46;91.49;101036.78;4979650;28;20207;-70
2023/06/28 03:34:16;;;;;;;5.63;2.60;;;;;;;13.45;91.55;101040.41;4975859;28;20228;-70
2023/06/28 03:36:43;;;;;;;5.40;1.80;;;;;;;13.45;91.84;101040.41;4979759;28;20211;-70
2023/06/28 03:39:09;;;;;;;4.97;2.13;;;;;;;13.44;91.80;101034.22;4982236;28;20592;-70
2023/06/28 03:41:37;;;;;;;4.83;2.00;;;;;;;13.44;91.95;101036.88;4981595;28;20695;-71
2023/06/28 03:44:04;;;;;;;4.80;2.10;;;;;;;13.45;91.69;101038.59;4975635;28;20216;-70
2023/06/28 03:46:30;;;;;;;5.60;2.23;;;;;;;13.45;92.25;101037.75;4983500;28;20691;-69
2023/06/28 03:48:57;;;;;;;6.43;2.60;;;;;;;13.48;91.82;101042.91;4978602;28;20208;-69
2023/06/28 03:51:23;;;;;;;5.70;2.03;;;;;;;13.49;92.10;101033.91;4976430;28;20212;-69
2023/06/28 03:53:50;;;;;;;5.20;2.27;;;;;;;13.51;92.41;101032.84;4972698;28;20208;-70
2023/06/28 03:56:16;;;;;;;3.67;2.20;;;;;;;13.53;92.11;101030.06;4979844;28;20210;-71
2023/06/28 03:58:44;;;;;;;6.67;2.20;;;;;;;13.54;92.22;101031.78;4976643;28;20211;-70
2023/06/28 04:01:10;;;;;;;3.80;2.30;;;;;;;13.57;92.12;101038.75;4976385;28;20207;-70
2023/06/28 04:03:37;;;;;;;4.10;2.20;;;;;;;13.57;92.78;101034.25;4979319;28;20637;-70
2023/06/28 04:06:05;;;;;;;4.30;2.40;;;;;;;13.58;92.30;101027.06;4975756;28;20215;-70
2023/06/28 04:08:31;;;;;;;4.90;2.10;;;;;;;13.60;92.86;101027.81;4976389;28;20204;-70
2023/06/28 04:10:57;;;;;;;3.77;2.20;;;;;;;13.61;92.41;101032.22;4978609;28;20235;-70
2023/06/28 04:13:25;;;;;;;6.47;2.47;;;;;;;13.63;92.34;101036.47;4982634;28;20203;-70
2023/06/28 04:15:53;;;;;;;5.23;2.40;;;;;;;13.63;92.92;101031.13;4978701;28;20244;-71
2023/06/28 04:18:20;;;;;;;4.70;2.50;;;;;;;13.64;92.85;101030.16;4978968;28;20203;-70
2023/06/28 04:20:46;;;;;;;9.17;2.60;;;;;;;13.65;92.66;101042.56;4977617;28;20246;-70
2023/06/28 04:23:13;;;;;;;4.93;2.53;;;;;;;13.68;93.03;101039.69;4970922;28;20294;-69
2023/06/28 04:25:39;;;;;;;6.47;2.67;;;;;;;13.69;93.14;101044.09;4976079;28;20815;-70
2023/06/28 04:28:06;;;;;;;6.87;2.23;;;;;;;13.72;92.89;101035.84;4977210;28;20214;-71
2023/06/28 04:30:33;;;;;;;4.90;2.47;;;;;;;13.73;93.24;101045.59;5000405;22;20295;-80
2023/06/28 04:33:04;;;;;;;5.17;2.30;;;;;;;13.76;92.88;101042.69;5003841;28;20775;-81
2023/06/28 04:35:33;;;;;;;4.30;2.57;;;;;;;13.80;93.04;101044.16;5001640;28;20203;-80
2023/06/28 04:38:03;;;;;;;4.13;2.70;;;;;;;13.82;93.18;101044.91;5008030;28;20211;-81
2023/06/28 04:40:29;;;;;;;4.47;2.43;;;;;;;13.86;93.06;101049.09;4996490;28;20233;-80
2023/06/28 04:42:56;;;;;;;4.53;2.20;;;;;;;13.87;92.75;101045.47;5003333;28;20207;-81
2023/06/28 04:45:35;;;;;;;4.30;2.23;;;;;;;13.89;92.89;101040.84;5003608;28;20223;-81
2023/06/28 04:48:03;;;;;;;5.33;2.67;;;;;;;13.90;92.93;101042.56;5006333;28;20203;-80
2023/06/28 04:50:29;;;;;;;6.60;2.53;;;;;;;13.94;92.71;101040.53;5003379;28;20211;-80
2023/06/28 04:52:56;;;;;;;3.17;2.57;;;;;;;13.95;92.41;101034.22;5004329;28;20211;-80
2023/06/28 04:55:23;;;;;;;7.87;2.80;;;;;;;13.97;92.62;101034.13;5004095;28;20203;-81
2023/06/28 04:57:49;;;;;;;6.60;2.50;;;;;;;13.99;92.21;101043.72;5003638;28;20207;-81
2023/06/28 05:00:17;;;;;;;7.37;2.77;;;;;;;14.01;92.60;101039.13;5009188;28;20229;-81
2023/06/28 05:02:44;;;;;;;4.97;2.37;;;;;;;14.04;92.24;101051.44;5008641;28;20281;-81
2023/06/28 05:05:14;;;;;;;8.23;2.73;;;;;;;14.06;92.44;101054.88;5010686;28;20211;-81
2023/06/28 05:07:40;;;;;;;6.80;2.50;;;;;;;14.06;92.17;101039.66;5004889;28;20202;-81
2023/06/28 05:10:07;;;;;;;7.07;2.50;;;;;;;14.10;91.73;101051.00;5007002;28;20700;-82
2023/06/28 05:12:34;;;;;;;5.80;2.77;;;;;;;14.12;91.71;101047.25;4999626;28;20223;-81
2023/06/28 05:15:00;;;;;;;4.63;2.30;;;;;;;14.15;91.65;101047.00;5007185;28;20215;-81
2023/06/28 05:17:27;;;;;;;10.53;2.50;;;;;;;14.21;91.95;101048.41;4999887;28;20208;-81
2023/06/28 05:19:53;;;;;;;4.20;2.40;;;;;;;14.27;91.81;101037.25;5004441;28;20228;-80
2023/06/28 05:22:22;;;;;;;6.83;2.60;;;;;;;14.34;91.74;101045.69;5004213;28;20851;-80
2023/06/28 05:24:48;;;;;;;6.00;2.07;;;;;;;14.40;91.77;101040.78;5002080;28;20211;-79
2023/06/28 05:27:15;;;;;;;4.97;2.27;;;;;;;14.49;91.93;101045.47;5006903;28;20222;-80
2023/06/28 05:29:41;;;;;;;4.80;2.20;;;;;;;14.56;91.71;101038.69;5004874;28;20210;-80
2023/06/28 05:32:08;;;;;;;6.03;1.90;;;;;;;14.66;91.18;101038.03;5006318;28;20223;-81
2023/06/28 05:34:35;;;;;;;5.63;2.40;;;;;;;14.71;90.96;101042.03;5007460;28;20211;-80
2023/06/28 05:37:01;;;;;;;4.40;2.50;;;;;;;14.78;90.11;101039.78;5005688;28;20701;-81
2023/06/28 05:39:30;;;;;;;5.50;2.30;;;;;;;14.85;90.15;101039.22;5007125;28;20561;-80
2023/06/28 05:41:56;;;;;;;5.70;2.20;;;;;;;14.96;90.43;101045.59;5008298;28;20219;-82
2023/06/28 05:44:23;;;;;;;5.40;2.10;;;;;;;15.05;89.33;101044.91;5003032;28;20210;-82
2023/06/28 05:46:49;;;;;;;5.83;2.10;;;;;;;15.15;88.70;101043.22;5006715;28;20207;-80
2023/06/28 05:49:16;;;;;;;4.83;2.00;;;;;;;15.26;88.98;101044.09;5005973;28;20207;-79
2023/06/28 05:51:42;;;;;;;3.70;2.27;;;;;;;15.41;88.60;101043.88;4998982;28;20224;-82
2023/06/28 05:54:09;;;;;;;6.37;2.30;;;;;;;15.52;87.70;101049.31;5007184;28;20205;-80
2023/06/28 05:56:37;;;;;;;4.23;1.60;;;;;;;15.66;87.00;101045.56;5004117;28;20207;-81
2023/06/28 05:59:03;;;;;;;6.03;2.40;;;;;;;15.79;86.08;101044.47;5001419;28;20211;-80
2023/06/28 06:01:30;;;;;;;4.43;2.10;;;;;;;15.88;84.19;101040.22;5003968;28;20232;-80
2023/06/28 06:03:56;;;;;;;5.03;1.77;;;;;;;15.99;83.29;101037.53;5005190;28;20217;-80
2023/06/28 06:06:22;;;;;;;4.73;2.20;;;;;;;16.13;82.81;101039.09;5006248;28;20217;-79
2023/06/28 06:08:49;;;;;;;6.17;2.20;;;;;;;16.23;81.26;101034.72;5003933;28;20216;-80
2023/06/28 06:11:15;;;;;;;5.20;1.83;;;;;;;16.34;80.80;101032.00;5010931;28;20312;-80
2023/06/28 06:13:43;;;;;;;6.23;2.00;;;;;;;16.49;80.60;101029.88;5004884;28;20214;-80
2023/06/28 06:16:10;;;;;;;3.93;1.80;;;;;;;16.63;80.53;101038.59;5001481;28;20214;-80
2023/06/28 06:18:39;;;;;;;4.43;1.73;;;;;;;16.78;79.29;101027.53;5005666;28;20694;-81
2023/06/28 06:21:06;;;;;;;5.83;2.33;;;;;;;16.91;79.09;101031.75;5006785;28;20242;-80
2023/06/28 06:23:32;;;;;;;4.50;1.80;;;;;;;17.03;77.94;101032.53;5009248;28;20204;-80
2023/06/28 06:25:59;;;;;;;3.87;2.03;;;;;;;17.15;77.33;101033.38;5005299;28;20210;-80
2023/06/28 06:28:25;;;;;;;4.33;1.90;;;;;;;17.29;77.31;101039.28;5009103;28;20206;-80
2023/06/28 06:30:53;;;;;;;3.87;2.07;;;;;;;17.41;76.42;101023.03;5010009;28;20238;-80
2023/06/28 06:33:20;;;;;;;5.57;1.87;;;;;;;17.54;76.22;101029.09;5001169;28;20204;-80
2023/06/28 06:35:46;;;;;;;4.70;2.00;;;;;;;17.62;75.12;101026.59;5008577;28;20228;-81
2023/06/28 06:38:13;;;;;;;3.73;1.77;;;;;;;17.71;74.78;101031.22;5008143;28;20210;-81
2023/06/28 06:40:39;;;;;;;5.00;2.07;;;;;;;17.83;74.05;101032.84;5002442;28;20231;-82
2023/06/28 06:43:06;;;;;;;3.37;1.80;;;;;;;17.92;73.93;101034.69;5004011;28;20207;-82
2023/06/28 06:45:32;;;;;;;6.87;1.73;;;;;;;18.04;73.72;101043.56;5005190;28;20208;-81
2023/06/28 06:48:00;;;;;;;4.60;1.40;;;;;;;18.18;73.47;101045.03;5005404;28;20220;-81
2023/06/28 06:50:26;;;;;;;7.10;2.30;;;;;;;18.33;73.43;101046.34;5004613;28;20218;-80
2023/06/28 06:52:53;;;;;;;7.67;2.00;;;;;;;18.43;72.62;101049.94;5006883;28;20216;-80
2023/06/28 06:55:19;;;;;;;4.87;2.00;;;;;;;18.59;72.17;101057.53;5005008;28;20208;-81
2023/06/28 06:57:46;;;;;;;3.73;1.93;;;;;;;18.69;71.56;101051.16;4998388;28;20220;-81
2023/06/28 07:00:17;;;;;;;6.67;1.93;;;;;;;18.84;70.89;101054.28;5005110;28;20247;-82
2023/06/28 07:02:43;;;;;;;8.40;1.50;;;;;;;18.99;70.40;101052.03;5003635;28;20272;-81
2023/06/28 07:05:15;;;;;;;4.70;1.53;;;;;;;19.08;69.49;101051.19;5007899;28;20210;-81
2023/06/28 07:07:42;;;;;;;6.03;2.03;;;;;;;19.19;68.72;101051.03;5003736;28;20209;-81
2023/06/28 07:10:09;;;;;;;3.00;1.50;;;;;;;19.29;67.99;101048.34;5008071;28;20681;-82
2023/06/28 07:12:36;;;;;;;3.83;1.87;;;;;;;19.38;67.57;101048.31;5009367;28;20611;-81
2023/06/28 07:15:02;;;;;;;7.83;1.83;;;;;;;19.50;68.19;101053.63;5007970;28;20705;-83
2023/06/28 07:17:30;;;;;;;3.53;1.50;;;;;;;19.66;66.95;101052.00;5002290;28;20215;-84
2023/06/28 07:19:57;;;;;;;7.77;1.90;;;;;;;19.72;65.40;101054.13;5003223;28;20229;-82
2023/06/28 07:22:25;;;;;;;3.83;1.50;;;;;;;19.74;64.33;101053.97;5003797;28;20703;-81
2023/06/28 07:24:51;;;;;;;6.33;1.57;;;;;;;19.75;64.19;101055.69;5004491;28;20223;-81
2023/06/28 07:27:18;;;;;;;3.47;1.60;;;;;;;19.79;64.78;101056.25;5001744;28;20210;-81
2023/06/28 07:29:44;;;;;;;4.00;1.40;;;;;;;19.89;64.87;101054.34;5005495;28;20208;-80
2023/06/28 07:32:11;;;;;;;4.43;1.40;;;;;;;19.97;64.21;101055.31;5004137;28;20243;-80
2023/06/28 07:34:38;;;;;;;3.57;0.90;;;;;;;20.03;63.08;101056.59;5008736;28;20695;-81
2023/06/28 07:37:11;;;;;;;5.40;1.30;;;;;;;20.09;62.70;101056.84;5005700;28;20211;-79
2023/06/28 07:39:38;;;;;;;2.93;1.13;;;;;;;20.21;62.44;101045.84;5007909;28;20207;-80
2023/06/28 07:42:05;;;;;;;4.83;1.33;;;;;;;20.34;61.21;101051.75;5002496;28;20239;-80
2023/06/28 07:44:32;;;;;;;4.83;1.40;;;;;;;20.47;60.66;101057.69;5003709;28;20202;-81
2023/06/28 07:46:58;;;;;;;3.80;1.37;;;;;;;20.63;60.91;101054.31;5003477;28;20209;-81
2023/06/28 07:49:25;;;;;;;3.15;1.60;;;;;;;20.79;60.26;101049.06;5003351;28;20207;-81
2023/06/28 07:51:51;;;;;;;4.38;1.70;;;;;;;20.92;58.98;101043.28;5000968;28;20234;-80
2023/06/28 07:54:18;;;;;;;4.22;1.20;;;;;;;21.04;58.68;101048.31;5001866;28;20206;-80
2023/06/28 07:56:45;;;;;;;3.42;1.35;;;;;;;21.18;57.81;101046.91;5009276;28;20222;-80
2023/06/28 07:59:12;;;;;;;3.15;1.02;;;;;;;21.31;56.79;101046.56;4999977;28;20207;-80
2023/06/28 08:01:38;;;;;;;3.78;1.30;;;;;;;21.40;56.73;101051.88;5004074;28;20257;-81
2023/06/28 08:04:05;;;;;;;5.70;1.05;;;;;;;21.52;55.16;101038.06;4996648;28;20214;-81
2023/06/28 08:06:31;;;;;;;3.45;0.90;;;;;;;21.52;52.64;101035.34;5000172;28;20211;-80
2023/06/28 08:08:58;;;;;;;2.28;0.95;;;;;;;21.53;52.33;101035.19;5003336;28;20215;-80
2023/06/28 08:11:24;;;;;;;2.22;1.20;;;;;;;21.60;52.76;101040.84;5004545;28;20234;-80
2023/06/28 08:13:52;;;;;;;2.72;0.90;;;;;;;21.73;53.34;101041.25;5006804;28;20203;-79
2023/06/28 08:16:18;;;;;;;5.70;1.35;;;;;;;21.76;52.60;101039.09;5000288;28;20779;-81
2023/06/28 08:18:45;;;;;;;3.53;1.05;;;;;;;21.76;52.89;101041.81;5002043;28;20213;-79
2023/06/28 08:21:11;;;;;;;4.47;1.40;;;;;;;21.79;52.86;101032.50;5007160;28;20234;-80
2023/06/28 08:23:38;;;;;;;3.72;1.10;;;;;;;21.85;52.66;101044.56;5004491;28;20207;-80
2023/06/28 08:26:04;;;;;;;2.55;1.17;;;;;;;21.93;52.22;101042.75;5007344;28;20203;-81
2023/06/28 08:28:31;;;;;;;4.25;1.10;;;;;;;22.04;51.76;101047.91;5005703;28;20213;-80
2023/06/28 08:30:59;;;;;;;3.22;1.10;;;;;;;22.14;51.36;101050.50;5000793;28;20715;-79
2023/06/28 08:33:25;;;;;;;2.95;1.00;;;;;;;22.23;51.42;101046.81;5008385;28;20870;-80
2023/06/28 08:35:52;;;;;;;4.85;1.20;;;;;;;22.36;51.22;101043.66;5010707;28;20202;-79
2023/06/28 08:38:19;;;;;;;4.10;1.27;;;;;;;22.48;51.52;101047.78;5002195;28;20206;-81
2023/06/28 08:40:45;;;;;;;3.88;1.23;;;;;;;22.57;51.10;101041.38;5005633;28;20258;-82
2023/06/28 08:43:16;;;;;;;4.13;1.10;;;;;;;22.63;50.73;101048.84;5004751;28;20210;-81
2023/06/28 08:45:44;;;;;;;2.38;1.13;;;;;;;22.61;50.25;101037.28;5009009;28;20206;-80
2023/06/28 08:48:13;;;;;;;4.82;1.08;;;;;;;22.60;50.13;101046.44;5008405;28;20210;-81
2023/06/28 08:50:40;;;;;;;4.82;0.98;;;;;;;22.65;49.31;101049.50;5007151;28;20246;-80
2023/06/28 08:53:09;;;;;;;3.03;1.30;;;;;;;22.68;49.54;101045.63;5004366;28;20229;-79
2023/06/28 08:55:36;;;;;;;1.88;0.70;;;;;;;22.72;49.05;101045.13;5009408;28;20214;-81
2023/06/28 08:58:06;;;;;;;2.70;1.10;;;;;;;22.77;49.05;101048.22;5005166;28;20211;-80
2023/06/28 09:00:32;;;;;;;3.13;0.80;;;;;;;22.82;49.11;101045.84;5009286;28;20695;-79
2023/06/28 09:03:00;;;;;;;2.80;1.33;;;;;;;22.90;49.36;101036.03;5014156;28;20207;-80
2023/06/28 09:05:28;;;;;;;1.70;0.93;;;;;;;22.90;49.29;101041.47;5013479;28;20211;-80
2023/06/28 09:07:57;;;;;;;3.63;1.15;;;;;;;22.84;48.70;101032.13;5011253;28;20660;-80
2023/06/28 09:10:24;;;;;;;3.47;1.05;;;;;;;22.86;48.88;101024.66;5008154;28;20203;-80
2023/06/28 09:12:52;;;;;;;1.98;1.02;;;;;;;22.91;49.13;101035.88;5010468;28;20226;-81
2023/06/28 09:15:20;;;;;;;2.92;1.00;;;;;;;22.93;48.74;101025.66;5003387;28;20218;-79
2023/06/28 09:17:46;;;;;;;3.58;1.17;;;;;;;22.94;48.97;101023.78;5003192;28;20294;-80
2023/06/28 09:20:17;;;;;;;2.15;1.17;;;;;;;23.04;48.54;101022.63;5009899;28;20211;-81
2023/06/28 09:22:54;;;;;;;3.63;1.00;;;;;;;23.13;48.23;101020.75;5004902;28;20222;-81
2023/06/28 09:25:21;;;;;;;3.95;1.17;;;;;;;23.14;47.38;101020.59;5006298;28;20217;-80
2023/06/28 09:27:47;;;;;;;2.75;1.00;;;;;;;23.14;47.86;101017.88;5000358;28;20617;-82
2023/06/28 09:30:18;;;;;;;3.10;1.27;;;;;;;23.22;47.81;101027.91;4999537;28;20664;-82
2023/06/28 09:32:49;;;;;;;2.92;0.90;;;;;;;23.28;47.06;101023.66;5001507;28;20664;-81
2023/06/28 09:35:16;;;;;;;2.88;1.00;;;;;;;23.35;46.58;101021.94;5005469;28;20693;-81
2023/06/28 09:37:50;;;;;;;4.05;1.13;;;;;;;23.37;46.64;101017.19;5009359;28;20202;-81
2023/06/28 09:40:18;;;;;;;3.70;1.10;;;;;;;23.43;46.59;101013.78;5012288;28;20268;-82
2023/06/28 09:42:45;;;;;;;2.92;1.50;;;;;;;23.50;46.35;101018.34;5002362;28;20216;-81
2023/06/28 09:45:24;;;;;;;4.63;1.30;;;;;;;23.60;46.84;101009.22;5008756;28;20215;-81
2023/06/28 09:47:55;;;;;;;1.73;0.88;;;;;;;23.71;46.56;101009.69;5008907;28;20790;-80
2023/06/28 09:50:22;;;;;;;3.30;1.10;;;;;;;23.79;45.90;101017.00;5005311;28;20260;-81
2023/06/28 09:52:49;;;;;;;2.80;1.08;;;;;;;23.87;45.79;101014.22;5006442;28;20249;-81
2023/06/28 09:55:16;;;;;;;3.38;1.00;;;;;;;23.93;45.68;101012.69;5001950;28;20214;-82
2023/06/28 09:57:43;;;;;;;3.10;1.00;;;;;;;24.02;45.13;101009.75;5007342;28;20199;-81
2023/06/28 10:00:11;;;;;;;3.38;1.08;;;;;;;;;;5002928;28;20203;-81
2023/06/28 10:02:40;;;;;;;3.22;0.85;;;;;;;24.22;44.19;101018.34;5006721;28;20231;-81
2023/06/28 10:05:08;;;;;;;1.88;1.00;;;;;;;24.30;43.82;101018.38;5009580;28;20306;-81
2023/06/28 10:07:35;;;;;;;2.25;0.95;;;;;;;24.33;43.26;101019.88;5007886;28;20203;-81
2023/06/28 10:10:04;;;;;;;4.00;1.20;;;;;;;24.37;42.92;101023.94;5005642;28;20207;-81
2023/06/28 10:12:32;;;;;;;2.25;1.00;;;;;;;24.37;42.48;101015.75;5011172;28;20253;-81
2023/06/28 10:15:05;;;;;;;1.48;0.93;;;;;;;24.47;43.12;101013.69;5005810;28;20207;-81
2023/06/28 10:17:33;;;;;;;1.45;0.70;;;;;;;24.57;42.58;101014.28;5004897;28;20209;-82
2023/06/28 10:20:00;;;;;;;1.85;0.70;;;;;;;24.69;42.39;101015.59;5007732;28;20203;-81
2023/06/28 10:22:27;;;;;;;2.22;0.70;;;;;;;24.73;42.01;101014.19;5009171;28;20230;-80
2023/06/28 10:24:55;;;;;;;2.53;0.70;;;;;;;24.74;41.99;101007.72;5012821;28;20911;-81
2023/06/28 10:27:28;;;;;;;2.65;1.20;;;;;;;24.73;41.64;101008.75;5015047;28;20301;-81
2023/06/28 10:29:55;;;;;;;2.85;1.00;;;;;;;24.75;41.80;101008.56;5014299;28;20211;-80
2023/06/28 10:32:22;;;;;;;2.15;1.00;;;;;;;24.77;42.40;101012.81;5007031;28;20735;-81
2023/06/28 10:34:49;;;;;;;4.18;1.10;;;;;;;24.83;41.87;101006.66;5004738;28;20688;-81
2023/06/28 10:37:21;;;;;;;2.63;0.85;;;;;;;24.88;41.98;101006.97;5004646;28;20207;-80
2023/06/28 10:39:47;;;;;;;2.72;0.90;;;;;;;24.90;40.44;101007.59;5005792;28;20219;-80
2023/06/28 10:42:14;;;;;;;4.88;1.50;;;;;;;24.91;41.10;101001.13;5006635;28;20227;-80
2023/06/28 10:44:53;;;;;;;1.42;0.80;;;;;;;24.98;41.19;100997.72;5008221;28;20203;-80
2023/06/28 10:47:19;;;;;;;3.33;1.00;;;;;;;24.99;40.30;100996.69;5006960;28;20206;-81
2023/06/28 10:50:10;;;;;;;2.10;0.88;;;;;;;25.02;40.53;100985.44;5009728;28;20202;-80
2023/06/28 10:52:45;;;;;;;3.22;0.98;;;;;;;25.03;40.12;100990.69;5008587;28;20238;-80
2023/06/28 10:55:12;;;;;;;2.17;0.82;;;;;;;25.00;40.18;100998.38;5005771;28;20198;-80
2023/06/28 10:57:39;;;;;;;2.15;0.70;;;;;;;25.05;41.21;100995.97;5009684;28;20203;-80
2023/06/28 11:00:29;;;;;;;3.83;1.20;;;;;;;25.18;41.46;100990.72;5010648;28;20198;-80
2023/06/28 11:03:03;;;;;;;3.22;0.93;;;;;;;25.23;40.63;100991.03;4997590;28;20566;-80
2023/06/28 11:05:41;;;;;;;2.83;0.90;;;;;;;25.30;41.02;100993.84;5003697;28;20837;-81
2023/06/28 11:08:09;;;;;;;2.20;1.00;;;;;;;25.34;41.05;100997.91;5003575;28;20662;-80
2023/06/28 11:10:39;;;;;;;3.78;0.82;;;;;;;25.46;40.78;100993.69;5002424;28;20231;-80
2023/06/28 11:13:09;;;;;;;1.67;0.90;;;;;;;25.59;40.88;100996.66;5006378;28;20206;-80
2023/06/28 11:15:42;;;;;;;2.38;1.20;;;;;;;25.69;40.57;100997.25;5004013;28;20211;-80
2023/06/28 11:18:11;;;;;;;1.08;0.90;;;;;;;25.77;40.91;100994.44;5008901;28;20214;-80
2023/06/28 11:20:57;;;;;;;2.60;1.10;;;;;;;25.85;40.88;100997.06;5003721;28;20780;-80
2023/06/28 11:23:25;;;;;;;2.15;0.90;;;;;;;25.88;40.59;100995.84;5010022;28;20214;-80
2023/06/28 11:25:56;;;;;;;2.95;1.25;;;;;;;25.89;40.67;100990.19;5012081;28;20629;-80
2023/06/28 11:28:28;;;;;;;1.70;1.10;;;;;;;25.85;40.25;100997.06;5005043;28;20214;-80